Time;durP1;ratioP1;P1;durP2;ratioP2;P2;SDS_P1;SDS_P2;PMS_P1;PMS_P2;Temp;Humidity;BMP_temperature;BMP_pressure;BME280_temperature;BME280_humidity;BME280_pressure;Samples;Min_cycle;Max_cycle;Signal;HPM_P1;HPM_P2
2022/10/05 00:02:03;;;;;;;;;3.75;3.75;;;;;;;;5082870;28;63731;-81
2022/10/05 00:04:28;;;;;;;;;5.00;4.00;;;;;;;;5085418;27;61888;-81
2022/10/05 00:06:56;;;;;;;;;5.00;4.00;;;;;;;;5084884;28;61896;-81
2022/10/05 00:09:21;;;;;;;;;4.25;2.50;;;;;;;;5083866;28;61987;-81
2022/10/05 00:11:48;;;;;;;;;4.75;4.00;;;;;;;;5082762;28;64049;-81
2022/10/05 00:14:17;;;;;;;;;3.25;3.25;;;;;;;;5084381;28;61831;-81
2022/10/05 00:16:43;;;;;;;;;8.00;4.25;;;;;;;;5085072;27;61856;-81
2022/10/05 00:19:18;;;;;;;;;4.50;4.50;;;;;;;;5084988;28;61893;-82
2022/10/05 00:21:43;;;;;;;;;6.25;4.25;;;;;;;;5082496;28;64617;-81
2022/10/05 00:24:09;;;;;;;;;4.75;4.75;;;;;;;;5082972;28;61776;-81
2022/10/05 00:26:34;;;;;;;;;7.75;4.00;;;;;;;;5084889;27;61855;-81
2022/10/05 00:29:00;;;;;;;;;9.00;5.00;;;;;;;;5084768;27;61710;-81
2022/10/05 00:31:29;;;;;;;;;5.25;4.00;;;;;;;;5082689;28;64565;-81
2022/10/05 00:33:55;;;;;;;;;5.00;4.00;;;;;;;;5084840;27;61739;-81
2022/10/05 00:36:20;;;;;;;;;6.75;4.50;;;;;;;;5083077;28;62100;-81
2022/10/05 00:38:46;;;;;;;;;5.00;3.75;;;;;;;;5083333;28;62053;-81
2022/10/05 00:41:14;;;;;;;;;5.50;5.50;;;;;;;;5069102;27;62091;-81
2022/10/05 00:43:56;;;;;;;;;9.00;5.00;;;;;;;;5096539;27;62081;-81
2022/10/05 00:46:24;;;;;;;;;5.00;3.00;;;;;;;;5064056;28;61900;-81
2022/10/05 00:49:06;;;;;;;;;7.25;5.00;;;;;;;;5062899;28;61902;-81
2022/10/05 00:51:35;;;;;;;;;4.75;2.75;;;;;;;;5061943;28;64060;-81
2022/10/05 00:54:00;;;;;;;;;5.00;5.00;;;;;;;;5063877;28;61896;-81
2022/10/05 00:56:37;;;;;;;;;5.50;5.50;;;;;;;;5096658;27;62120;-81
2022/10/05 00:59:11;;;;;;;;;8.75;5.50;;;;;;;;5096582;27;61821;-81
2022/10/05 01:01:45;;;;;;;;;4.00;4.00;;;;;;;;5099701;27;63808;-80
2022/10/05 01:04:20;;;;;;;;;7.50;4.00;;;;;;;;5084275;28;61837;-81
2022/10/05 01:06:55;;;;;;;;;5.50;4.00;;;;;;;;5082457;28;61916;-81
2022/10/05 01:09:30;;;;;;;;;3.25;3.25;;;;;;;;5084167;27;61830;-81
2022/10/05 01:12:02;;;;;;;;;4.50;3.50;;;;;;;;5081924;28;64108;-81
2022/10/05 01:14:33;;;;;;;;;5.00;5.00;;;;;;;;5083651;27;61982;-81
2022/10/05 01:17:08;;;;;;;;;4.00;4.00;;;;;;;;5084278;27;61944;-81
2022/10/05 01:19:49;;;;;;;;;11.00;6.00;;;;;;;;5083988;27;61670;-81
2022/10/05 01:22:14;;;;;;;;;4.00;4.00;;;;;;;;5083109;28;62286;-81
2022/10/05 01:24:39;;;;;;;;;4.00;4.00;;;;;;;;5083348;28;61730;-81
2022/10/05 01:27:07;;;;;;;;;8.75;4.50;;;;;;;;5082674;28;61732;-81
2022/10/05 01:29:45;;;;;;;;;4.50;4.50;;;;;;;;5083466;27;62203;-81
2022/10/05 01:32:39;;;;;;;;;4.75;4.00;;;;;;;;5081760;28;63730;-81
2022/10/05 01:35:17;;;;;;;;;4.75;4.75;;;;;;;;5064068;28;62165;-81
2022/10/05 01:37:49;;;;;;;;;5.50;4.75;;;;;;;;5083363;28;61741;-81
2022/10/05 01:40:22;;;;;;;;;6.50;5.00;;;;;;;;5084015;28;61841;-81
2022/10/05 01:43:08;;;;;;;;;7.00;6.50;;;;;;;;5082169;27;62851;-81
2022/10/05 01:45:42;;;;;;;;;4.50;4.00;;;;;;;;5083016;28;62107;-81
2022/10/05 01:48:12;;;;;;;;;6.50;6.50;;;;;;;;5082164;28;62020;-81
2022/10/05 01:50:53;;;;;;;;;4.00;4.00;;;;;;;;5083770;27;61744;-81
2022/10/05 01:53:26;;;;;;;;;8.25;6.00;;;;;;;;5081032;28;64069;-81
2022/10/05 01:55:58;;;;;;;;;6.50;5.75;;;;;;;;5083348;27;61971;-81
2022/10/05 01:58:35;;;;;;;;;4.75;3.00;;;;;;;;5082960;28;62397;-81
2022/10/05 02:01:03;;;;;;;;;5.50;5.50;;;;;;;;5082016;28;62150;-81
2022/10/05 02:03:38;;;;;;;;;4.25;3.00;;;;;;;;5080967;28;63778;-81
2022/10/05 02:06:09;;;;;;;;;3.25;3.25;;;;;;;;5083390;28;61913;-80
2022/10/05 02:08:49;;;;;;;;;2.75;2.75;;;;;;;;5081537;28;61905;-81
2022/10/05 02:11:14;;;;;;;;;6.00;3.00;;;;;;;;5082102;28;61766;-81
2022/10/05 02:13:46;;;;;;;;;3.75;2.75;;;;;;;;5082148;28;61744;-82
2022/10/05 02:16:41;;;;;;;;;3.25;3.25;;;;;;;;5081635;28;61865;-81
2022/10/05 02:19:21;;;;;;;;;4.50;3.50;;;;;;;;5069438;28;61982;-81
2022/10/05 02:21:52;;;;;;;;;4.00;4.00;;;;;;;;5081371;28;61826;-81
2022/10/05 02:24:21;;;;;;;;;2.00;2.00;;;;;;;;5082124;28;62187;-81
2022/10/05 02:26:47;;;;;;;;;2.25;1.75;;;;;;;;5082797;27;62495;-81
2022/10/05 02:29:14;;;;;;;;;4.50;3.00;;;;;;;;5082678;27;61915;-81
2022/10/05 02:31:43;;;;;;;;;2.00;2.00;;;;;;;;5081439;28;61851;-81
2022/10/05 02:34:19;;;;;;;;;1.25;1.25;;;;;;;;5080919;28;64935;-81
2022/10/05 02:36:45;;;;;;;;;2.50;2.50;;;;;;;;5082477;27;61705;-81
2022/10/05 02:39:17;;;;;;;;;1.75;1.50;;;;;;;;5083108;27;62153;-82
2022/10/05 02:41:49;;;;;;;;;2.00;2.00;;;;;;;;5081214;28;62194;-81
2022/10/05 02:44:23;;;;;;;;;2.00;2.00;;;;;;;;5080310;28;64968;-81
2022/10/05 02:46:48;;;;;;;;;4.00;3.00;;;;;;;;5081128;28;61833;-82
2022/10/05 02:49:34;;;;;;;;;3.00;2.00;;;;;;;;5081405;28;61872;-82
2022/10/05 02:52:05;;;;;;;;;3.25;2.00;;;;;;;;5080334;28;62315;-81
2022/10/05 02:54:39;;;;;;;;;3.75;2.75;;;;;;;;5081752;28;62739;-81
2022/10/05 02:57:24;;;;;;;;;4.25;2.00;;;;;;;;5080927;28;61918;-82
2022/10/05 02:59:49;;;;;;;;;1.00;1.00;;;;;;;;5080362;28;61854;-82
2022/10/05 03:02:20;;;;;;;;;1.00;1.00;;;;;;;;5082252;27;61700;-81
2022/10/05 03:04:57;;;;;;;;;1.00;1.00;;;;;;;;5079936;28;64349;-82
2022/10/05 03:07:26;;;;;;;;;4.00;2.00;;;;;;;;5080997;28;61820;-81
2022/10/05 03:10:13;;;;;;;;;4.25;2.00;;;;;;;;5080627;28;61857;-81
2022/10/05 03:12:43;;;;;;;;;4.50;1.00;;;;;;;;5080779;28;62218;-81
2022/10/05 03:15:27;;;;;;;;;1.75;1.50;;;;;;;;5079591;28;64135;-81
2022/10/05 03:17:59;;;;;;;;;3.00;1.00;;;;;;;;5080643;28;61999;-81
2022/10/05 03:20:40;;;;;;;;;2.75;2.75;;;;;;;;5082026;27;62044;-82
2022/10/05 03:23:10;;;;;;;;;2.25;2.25;;;;;;;;5081428;27;61734;-81
2022/10/05 03:25:43;;;;;;;;;2.00;2.00;;;;;;;;5080183;28;63924;-82
2022/10/05 03:28:20;;;;;;;;;2.50;2.00;;;;;;;;5081109;28;62157;-81
2022/10/05 03:30:48;;;;;;;;;1.50;1.00;;;;;;;;5080771;28;61947;-81
2022/10/05 03:33:19;;;;;;;;;2.00;2.00;;;;;;;;5080356;28;62241;-80
2022/10/05 03:35:44;;;;;;;;;2.00;2.00;;;;;;;;5080196;28;63823;-82
2022/10/05 03:38:13;;;;;;;;;2.50;1.75;;;;;;;;5081515;27;61800;-82
2022/10/05 03:41:10;;;;;;;;;3.25;3.00;;;;;;;;5082157;28;61674;-82
2022/10/05 03:43:54;;;;;;;;;4.25;3.00;;;;;;;;5059395;28;62026;-81
2022/10/05 03:46:31;;;;;;;;;1.00;1.00;;;;;;;;5064459;28;62991;-81
2022/10/05 03:49:02;;;;;;;;;2.00;0.25;;;;;;;;5079853;28;62194;-82
2022/10/05 03:51:30;;;;;;;;;1.75;1.75;;;;;;;;5080264;28;61753;-81
2022/10/05 03:54:02;;;;;;;;;0.75;0.00;;;;;;;;5080142;28;62136;-81
2022/10/05 03:56:34;;;;;;;;;1.00;1.00;;;;;;;;5079697;28;63888;-81
2022/10/05 03:59:04;;;;;;;;;2.00;2.00;;;;;;;;5083331;28;62011;-81
2022/10/05 04:01:44;;;;;;;;;2.75;1.00;;;;;;;;5083511;28;61745;-81
2022/10/05 04:04:17;;;;;;;;;2.00;2.00;;;;;;;;5083132;28;62070;-81
2022/10/05 04:06:46;;;;;;;;;1.50;1.50;;;;;;;;5084536;28;62084;-81
2022/10/05 04:09:26;;;;;;;;;3.25;2.00;;;;;;;;5084652;28;61821;-81
2022/10/05 04:12:04;;;;;;;;;1.75;1.50;;;;;;;;5083362;28;61856;-81
2022/10/05 04:14:59;;;;;;;;;2.75;1.00;;;;;;;;5083591;28;62489;-81
2022/10/05 04:17:36;;;;;;;;;4.00;2.00;;;;;;;;5078643;27;62015;-81
2022/10/05 04:20:14;;;;;;;;;3.00;3.00;;;;;;;;5082949;28;61867;-81
2022/10/05 04:22:41;;;;;;;;;2.25;2.00;;;;;;;;5083102;27;61829;-81
2022/10/05 04:25:28;;;;;;;;;3.00;3.00;;;;;;;;5082545;27;62028;-81
2022/10/05 04:27:59;;;;;;;;;4.25;3.25;;;;;;;;5083763;28;61883;-81
2022/10/05 04:30:24;;;;;;;;;2.00;2.00;;;;;;;;5083236;28;61777;-81
2022/10/05 04:32:54;;;;;;;;;3.50;2.75;;;;;;;;5084514;27;61877;-81
2022/10/05 04:35:28;;;;;;;;;2.50;2.50;;;;;;;;5083071;28;61805;-81
2022/10/05 04:38:00;;;;;;;;;3.00;3.00;;;;;;;;5084167;27;62929;-81
2022/10/05 04:40:25;;;;;;;;;3.00;3.00;;;;;;;;5084539;28;61706;-81
2022/10/05 04:42:53;;;;;;;;;2.00;1.00;;;;;;;;5082802;28;61714;-81
2022/10/05 04:45:24;;;;;;;;;4.75;3.50;;;;;;;;5082869;28;61838;-81
2022/10/05 04:50:51;;;;;;;;;2.25;2.25;;;;;;;;5144027;22;63742;-76
2022/10/05 04:53:30;;;;;;;;;5.50;2.00;;;;;;;;5038254;28;62260;-75
2022/10/05 04:56:00;;;;;;;;;4.00;1.00;;;;;;;;5025789;28;62166;-75
2022/10/05 04:58:40;;;;;;;;;2.00;2.00;;;;;;;;5042756;28;62770;-76
2022/10/05 05:01:20;;;;;;;;;1.75;1.75;;;;;;;;5043489;28;61885;-76
2022/10/05 05:04:00;;;;;;;;;1.25;1.25;;;;;;;;5043167;28;61936;-77
2022/10/05 05:06:25;;;;;;;;;4.00;2.75;;;;;;;;5043572;28;61714;-76
2022/10/05 05:08:55;;;;;;;;;2.00;1.75;;;;;;;;5041631;28;61853;-76
2022/10/05 05:11:22;;;;;;;;;4.50;3.00;;;;;;;;5043691;28;61899;-75
2022/10/05 05:14:15;;;;;;;;;2.75;2.75;;;;;;;;5045525;28;61584;-75
2022/10/05 05:16:41;;;;;;;;;2.25;2.25;;;;;;;;5001229;28;61875;-76
2022/10/05 05:19:17;;;;;;;;;2.75;2.00;;;;;;;;4999684;28;62449;-76
2022/10/05 05:21:48;;;;;;;;;3.75;2.00;;;;;;;;5000722;28;61739;-76
2022/10/05 05:24:20;;;;;;;;;2.50;2.50;;;;;;;;5000858;28;61904;-76
2022/10/05 05:26:57;;;;;;;;;4.00;2.00;;;;;;;;5000360;28;61804;-76
2022/10/05 05:29:31;;;;;;;;;0.50;0.50;;;;;;;;4980749;28;61931;-76
2022/10/05 05:31:59;;;;;;;;;4.50;2.00;;;;;;;;4980658;28;61955;-76
2022/10/05 05:34:27;;;;;;;;;2.75;1.75;;;;;;;;4980840;28;61867;-75
2022/10/05 05:37:11;;;;;;;;;1.50;1.50;;;;;;;;4981126;28;61969;-77
2022/10/05 05:39:55;;;;;;;;;2.25;2.25;;;;;;;;4980504;28;64757;-76
2022/10/05 05:42:35;;;;;;;;;1.00;1.00;;;;;;;;4989432;28;62131;-76
2022/10/05 05:45:07;;;;;;;;;2.00;2.00;;;;;;;;5000507;28;61864;-75
2022/10/05 05:47:34;;;;;;;;;2.00;2.00;;;;;;;;4983528;28;62011;-76
2022/10/05 05:50:18;;;;;;;;;2.00;2.00;;;;;;;;4999540;28;62832;-75
2022/10/05 05:52:50;;;;;;;;;1.25;1.25;;;;;;;;4991190;28;61937;-75
2022/10/05 05:55:23;;;;;;;;;1.50;1.50;;;;;;;;5041710;28;61848;-74
2022/10/05 05:58:07;;;;;;;;;1.25;1.25;;;;;;;;5041882;28;62153;-75
2022/10/05 06:00:39;;;;;;;;;2.25;2.25;;;;;;;;5023199;28;64149;-75
2022/10/05 06:03:11;;;;;;;;;2.00;2.00;;;;;;;;5041772;28;62369;-74
2022/10/05 06:05:43;;;;;;;;;5.00;2.00;;;;;;;;5042141;28;61938;-74
2022/10/05 06:08:15;;;;;;;;;3.00;3.00;;;;;;;;5024211;28;61866;-75
2022/10/05 06:10:50;;;;;;;;;3.00;2.00;;;;;;;;5041823;28;61865;-75
2022/10/05 06:13:42;;;;;;;;;2.25;2.25;;;;;;;;5041605;28;61755;-75
2022/10/05 06:16:25;;;;;;;;;1.50;1.50;;;;;;;;5038150;28;61892;-75
2022/10/05 06:18:56;;;;;;;;;2.00;2.00;;;;;;;;5042335;28;61882;-74
2022/10/05 06:21:28;;;;;;;;;2.25;2.25;;;;;;;;5041361;28;61878;-75
2022/10/05 06:23:58;;;;;;;;;3.00;3.00;;;;;;;;5042105;28;61846;-75
2022/10/05 06:26:29;;;;;;;;;3.25;3.25;;;;;;;;5042128;28;61931;-74
2022/10/05 06:28:57;;;;;;;;;2.50;2.50;;;;;;;;5041904;28;61887;-79
2022/10/05 06:31:36;;;;;;;;;2.25;2.25;;;;;;;;5041178;28;61857;-79
2022/10/05 06:34:13;;;;;;;;;5.50;3.25;;;;;;;;5042301;28;61660;-74
2022/10/05 06:36:49;;;;;;;;;3.50;2.50;;;;;;;;5042080;28;61941;-74
2022/10/05 06:39:23;;;;;;;;;2.50;2.00;;;;;;;;5042349;28;61813;-74
2022/10/05 06:42:09;;;;;;;;;4.00;3.00;;;;;;;;5041524;28;61946;-74
2022/10/05 06:44:52;;;;;;;;;6.50;3.00;;;;;;;;5022181;28;61842;-74
2022/10/05 06:47:36;;;;;;;;;3.00;3.00;;;;;;;;5041827;28;61869;-75
2022/10/05 06:50:10;;;;;;;;;2.00;1.50;;;;;;;;5039918;28;61858;-81
2022/10/05 06:52:45;;;;;;;;;2.00;2.00;;;;;;;;5034708;28;63764;-75
2022/10/05 06:55:10;;;;;;;;;4.00;3.25;;;;;;;;5043125;28;61862;-78
2022/10/05 06:57:38;;;;;;;;;3.00;3.00;;;;;;;;5041357;28;61973;-75
2022/10/05 07:00:13;;;;;;;;;4.50;2.25;;;;;;;;5041546;28;61791;-75
2022/10/05 07:02:57;;;;;;;;;3.25;1.25;;;;;;;;5040887;28;61764;-75
2022/10/05 07:05:28;;;;;;;;;6.25;2.25;;;;;;;;5041939;28;61858;-75
2022/10/05 07:07:58;;;;;;;;;3.75;2.75;;;;;;;;5023949;28;61829;-75
2022/10/05 07:10:23;;;;;;;;;3.00;2.00;;;;;;;;5041913;28;62064;-75
2022/10/05 07:12:59;;;;;;;;;2.75;2.75;;;;;;;;5041135;28;62745;-75
2022/10/05 07:15:43;;;;;;;;;5.25;3.00;;;;;;;;5041721;28;62038;-76
2022/10/05 07:18:24;;;;;;;;;5.25;4.00;;;;;;;;5041293;28;61853;-79
2022/10/05 07:20:50;;;;;;;;;3.67;3.00;;;;;;;;5038545;28;61844;-75
2022/10/05 07:23:53;;;;;;;;;4.50;3.00;;;;;;;;5046075;28;63071;-76
2022/10/05 07:26:21;;;;;;;;;4.25;3.50;;;;;;;;4941284;28;62105;-76
2022/10/05 07:28:51;;;;;;;;;4.50;3.50;;;;;;;;4958014;28;61989;-76
2022/10/05 07:31:34;;;;;;;;;3.75;2.00;;;;;;;;4959149;28;62243;-78
2022/10/05 07:34:19;;;;;;;;;3.00;3.00;;;;;;;;4961025;28;62226;-79
2022/10/05 07:39:45;;;;;;;;;3.00;2.00;;;;;;;;4962004;28;62056;-79
2022/10/05 07:42:21;;;;;;;;;4.00;3.00;;;;;;;;4962853;28;62132;-78
2022/10/05 07:44:53;;;;;;;;;6.00;3.00;;;;;;;;4960988;28;61858;-78
2022/10/05 07:47:29;;;;;;;;;4.75;3.50;;;;;;;;4943759;28;62498;-77
2022/10/05 07:50:01;;;;;;;;;4.00;4.00;;;;;;;;4962374;28;61964;-79
2022/10/05 07:52:35;;;;;;;;;5.00;3.25;;;;;;;;4954205;28;62025;-79
2022/10/05 07:55:20;;;;;;;;;3.00;3.00;;;;;;;;4976349;28;62511;-78
2022/10/05 07:57:45;;;;;;;;;4.75;2.00;;;;;;;;5013913;28;62244;-78
2022/10/05 08:00:19;;;;;;;;;7.00;3.00;;;;;;;;5027463;28;61885;-78
2022/10/05 08:02:44;;;;;;;;;3.00;3.00;;;;;;;;5044128;28;61787;-78
2022/10/05 08:05:15;;;;;;;;;6.25;2.75;;;;;;;;5043873;28;61743;-78
2022/10/05 08:07:41;;;;;;;;;4.50;3.25;;;;;;;;5043865;28;62092;-76
2022/10/05 08:10:17;;;;;;;;;2.25;2.25;;;;;;;;5026492;28;62101;-77
2022/10/05 08:13:00;;;;;;;;;5.00;4.00;;;;;;;;5043989;28;61713;-78
2022/10/05 08:15:30;;;;;;;;;4.25;2.75;;;;;;;;5025446;28;64729;-77
2022/10/05 08:17:59;;;;;;;;;2.00;1.00;;;;;;;;5043586;28;61806;-76
2022/10/05 08:20:33;;;;;;;;;4.25;3.00;;;;;;;;5046698;28;62089;-76
2022/10/05 08:23:22;;;;;;;;;1.25;1.25;;;;;;;;5038461;28;61758;-75
2022/10/05 08:26:00;;;;;;;;;4.00;2.75;;;;;;;;5045086;28;63451;-74
2022/10/05 08:28:29;;;;;;;;;2.00;2.00;;;;;;;;5045814;28;62334;-75
2022/10/05 08:31:06;;;;;;;;;2.00;2.00;;;;;;;;5064263;28;62080;-75
2022/10/05 08:33:44;;;;;;;;;2.00;2.00;;;;;;;;5064230;28;61758;-75
2022/10/05 08:36:12;;;;;;;;;4.25;3.25;;;;;;;;5025701;28;64013;-77
2022/10/05 08:38:38;;;;;;;;;2.33;2.33;;;;;;;;5025891;28;61850;-77
2022/10/05 08:41:07;;;;;;;;;3.50;2.75;;;;;;;;5043258;28;61821;-77
2022/10/05 08:43:44;;;;;;;;;4.00;2.25;;;;;;;;5051611;28;62010;-75
2022/10/05 08:46:22;;;;;;;;;3.33;1.67;;;;;;;;5063438;28;61848;-77
2022/10/05 08:48:47;;;;;;;;;3.33;3.33;;;;;;;;5045320;28;61976;-77
2022/10/05 08:51:12;;;;;;;;;5.00;4.00;;;;;;;;5033276;28;62035;-77
2022/10/05 08:53:40;;;;;;;;;1.33;1.33;;;;;;;;5025622;28;61803;-78
2022/10/05 08:56:35;;;;;;;;;2.00;2.00;;;;;;;;5042846;28;61850;-78
2022/10/05 08:59:13;;;;;;;;;5.75;4.00;;;;;;;;5007525;28;62532;-76
2022/10/05 09:01:56;;;;;;;;;4.00;3.00;;;;;;;;5043645;28;61685;-78
2022/10/05 09:04:22;;;;;;;;;2.50;2.50;;;;;;;;5025403;28;61744;-77
2022/10/05 09:06:56;;;;;;;;;2.33;2.33;;;;;;;;5042897;28;62555;-78
2022/10/05 09:09:41;;;;;;;;;4.67;2.33;;;;;;;;5025030;28;62162;-77
2022/10/05 09:12:12;;;;;;;;;2.67;2.67;;;;;;;;5047931;28;62072;-75
2022/10/05 09:14:44;;;;;;;;;1.33;1.33;;;;;;;;5045546;28;61938;-77
2022/10/05 09:17:09;;;;;;;;;4.33;3.33;;;;;;;;5042378;28;61679;-78
2022/10/05 09:19:49;;;;;;;;;3.00;3.00;;;;;;;;5042906;28;61816;-74
2022/10/05 09:22:15;;;;;;;;;3.67;1.67;;;;;;;;5043038;28;61746;-74
2022/10/05 09:24:50;;;;;;;;;2.00;2.00;;;;;;;;5043070;28;62075;-75
2022/10/05 09:27:17;;;;;;;;;3.00;2.75;;;;;;;;5049118;28;62601;-75
2022/10/05 09:29:51;;;;;;;;;3.33;2.00;;;;;;;;5062657;28;62571;-76
2022/10/05 09:32:17;;;;;;;;;2.33;2.33;;;;;;;;5063229;28;61707;-75
2022/10/05 09:34:46;;;;;;;;;3.00;3.00;;;;;;;;5063268;28;61785;-75
2022/10/05 09:37:14;;;;;;;;;4.67;3.00;;;;;;;;5061808;28;62555;-75
2022/10/05 09:39:57;;;;;;;;;1.00;1.00;;;;;;;;5061787;28;62071;-75
2022/10/05 09:42:33;;;;;;;;;3.67;3.00;;;;;;;;5063172;28;61761;-75
2022/10/05 09:45:07;;;;;;;;;2.00;2.00;;;;;;;;5045059;28;61778;-75
2022/10/05 09:48:07;;;;;;;;;3.33;2.00;;;;;;;;5062552;28;62226;-75
2022/10/05 09:50:43;;;;;;;;;5.00;3.00;;;;;;;;4963076;28;62190;-75
2022/10/05 09:53:26;;;;;;;;;3.00;3.00;;;;;;;;4979991;28;62466;-75
2022/10/05 09:55:52;;;;;;;;;1.00;1.00;;;;;;;;4980017;28;61971;-75
2022/10/05 09:58:19;;;;;;;;;3.33;3.00;;;;;;;;4962563;28;64663;-75
2022/10/05 10:00:50;;;;;;;;;2.67;1.33;;;;;;;;4980668;28;61845;-75
2022/10/05 10:03:24;;;;;;;;;3.00;0.67;;;;;;;;4979873;28;61936;-75
2022/10/05 10:06:09;;;;;;;;;2.33;1.67;;;;;;;;4980061;28;62239;-75
2022/10/05 10:08:37;;;;;;;;;2.67;2.00;;;;;;;;4979216;28;61885;-76
2022/10/05 10:11:15;;;;;;;;;3.67;3.00;;;;;;;;4980439;28;61833;-76
2022/10/05 10:13:50;;;;;;;;;1.00;1.00;;;;;;;;4979919;28;61764;-76
2022/10/05 10:16:34;;;;;;;;;3.00;1.67;;;;;;;;4980586;28;62088;-76
2022/10/05 10:19:07;;;;;;;;;3.00;3.00;;;;;;;;4963025;28;64837;-76
2022/10/05 10:21:32;;;;;;;;;1.67;1.67;;;;;;;;4980304;28;61869;-76
2022/10/05 10:24:12;;;;;;;;;2.67;1.00;;;;;;;;4978954;28;61885;-76
2022/10/05 10:26:38;;;;;;;;;2.33;2.33;;;;;;;;5024779;28;61833;-76
2022/10/05 10:29:22;;;;;;;;;1.67;1.00;;;;;;;;5040973;28;61833;-76
2022/10/05 10:31:50;;;;;;;;;2.33;2.33;;;;;;;;5042494;28;61857;-76
2022/10/05 10:34:21;;;;;;;;;1.67;0.67;;;;;;;;5024009;28;61792;-78
2022/10/05 10:37:05;;;;;;;;;0.00;0.00;;;;;;;;5042205;28;61912;-75
2022/10/05 10:39:30;;;;;;;;;1.00;1.00;;;;;;;;5041409;28;62044;-76
2022/10/05 10:42:04;;;;;;;;;2.00;2.00;;;;;;;;5041725;28;61670;-76
2022/10/05 10:44:53;;;;;;;;;2.00;1.00;;;;;;;;5040830;28;62051;-76
2022/10/05 10:47:36;;;;;;;;;1.67;1.00;;;;;;;;4941289;28;61913;-76
2022/10/05 10:50:23;;;;;;;;;0.00;0.00;;;;;;;;4940208;28;65093;-76
2022/10/05 10:52:48;;;;;;;;;0.33;0.33;;;;;;;;4933585;28;61851;-76
2022/10/05 10:55:25;;;;;;;;;1.33;1.00;;;;;;;;4924157;28;62538;-76
2022/10/05 10:58:05;;;;;;;;;1.33;1.33;;;;;;;;4925814;28;61759;-76
2022/10/05 11:00:36;;;;;;;;;1.33;1.33;;;;;;;;4920946;28;62969;-76
2022/10/05 11:03:04;;;;;;;;;2.33;1.00;;;;;;;;4921853;28;62029;-76
2022/10/05 11:05:41;;;;;;;;;2.67;0.67;;;;;;;;4921394;28;61779;-76
2022/10/05 11:08:30;;;;;;;;;1.67;0.67;;;;;;;;4924304;28;61819;-75
2022/10/05 11:11:11;;;;;;;;;0.67;0.67;;;;;;;;4926640;28;64902;-76
2022/10/05 11:13:39;;;;;;;;;0.00;0.00;;;;;;;;4926579;28;62237;-76
2022/10/05 11:16:06;;;;;;;;;0.67;0.67;;;;;;;;4935187;28;62076;-75
2022/10/05 11:18:46;;;;;;;;;0.67;0.67;;;;;;;;4935228;28;61971;-76
2022/10/05 11:21:24;;;;;;;;;1.00;1.00;;;;;;;;4924167;28;62873;-75
2022/10/05 11:24:14;;;;;;;;;1.00;1.00;;;;;;;;4963759;28;61924;-75
2022/10/05 11:26:58;;;;;;;;;0.67;0.00;;;;;;;;5042218;28;61710;-76
2022/10/05 11:29:42;;;;;;;;;1.00;1.00;;;;;;;;5042331;28;61902;-74
2022/10/05 11:32:17;;;;;;;;;0.33;0.00;;;;;;;;5042122;28;63071;-75
2022/10/05 11:34:45;;;;;;;;;0.33;0.33;;;;;;;;5041348;28;62067;-78
2022/10/05 11:37:30;;;;;;;;;0.67;0.67;;;;;;;;5023207;28;62109;-79
2022/10/05 11:40:16;;;;;;;;;0.33;0.33;;;;;;;;5041617;28;61985;-76
2022/10/05 11:42:53;;;;;;;;;3.00;1.00;;;;;;;;5042007;28;61881;-75
2022/10/05 11:45:35;;;;;;;;;1.67;0.67;;;;;;;;5042556;28;61931;-75
2022/10/05 11:48:06;;;;;;;;;0.67;0.33;;;;;;;;5042720;28;61913;-75
2022/10/05 11:50:40;;;;;;;;;1.00;1.00;;;;;;;;5041521;28;62223;-76
2022/10/05 11:53:26;;;;;;;;;1.33;1.00;;;;;;;;5040811;28;62755;-74
2022/10/05 11:56:00;;;;;;;;;2.33;1.00;;;;;;;;5042713;28;61930;-75
2022/10/05 11:58:30;;;;;;;;;1.00;1.00;;;;;;;;5041464;28;62076;-75
2022/10/05 12:00:59;;;;;;;;;3.00;2.00;;;;;;;;5042309;28;61825;-75
2022/10/05 12:03:24;;;;;;;;;1.33;1.33;;;;;;;;5023079;28;64000;-75
2022/10/05 12:05:52;;;;;;;;;0.00;0.00;;;;;;;;5041814;28;62108;-75
2022/10/05 12:08:20;;;;;;;;;2.67;2.00;;;;;;;;5042216;28;62101;-75
2022/10/05 12:10:55;;;;;;;;;3.00;1.33;;;;;;;;5042087;28;61961;-75
2022/10/05 12:13:23;;;;;;;;;1.00;1.00;;;;;;;;5040469;28;62372;-75
2022/10/05 12:15:56;;;;;;;;;1.00;1.00;;;;;;;;5040673;28;62125;-75
2022/10/05 12:18:26;;;;;;;;;1.33;1.33;;;;;;;;5040431;28;61797;-76
2022/10/05 12:20:53;;;;;;;;;6.00;3.00;;;;;;;;5041554;28;61872;-74
2022/10/05 12:23:24;;;;;;;;;2.00;2.00;;;;;;;;5040643;28;62500;-75
2022/10/05 12:25:58;;;;;;;;;1.00;1.00;;;;;;;;5040677;28;61955;-74
2022/10/05 12:28:28;;;;;;;;;1.33;1.00;;;;;;;;5022538;28;62023;-74
2022/10/05 12:31:02;;;;;;;;;2.33;2.00;;;;;;;;5042705;28;62021;-75
2022/10/05 12:33:53;;;;;;;;;1.00;0.67;;;;;;;;5037646;28;62802;-74
2022/10/05 12:36:27;;;;;;;;;3.00;2.00;;;;;;;;4958211;28;61860;-75
2022/10/05 12:39:03;;;;;;;;;0.33;0.33;;;;;;;;4959410;28;61972;-75
2022/10/05 12:41:35;;;;;;;;;2.00;1.00;;;;;;;;4954848;28;62260;-73
2022/10/05 12:44:03;;;;;;;;;3.00;1.67;;;;;;;;4962328;28;62031;-76
2022/10/05 12:46:34;;;;;;;;;1.67;1.00;;;;;;;;4959882;28;61887;-75
2022/10/05 12:49:02;;;;;;;;;2.33;1.00;;;;;;;;4960795;28;61883;-75
2022/10/05 12:51:43;;;;;;;;;2.00;0.67;;;;;;;;4964323;28;62068;-76
2022/10/05 12:54:14;;;;;;;;;2.50;1.50;;;;;;;;4947295;28;62793;-75
2022/10/05 12:56:52;;;;;;;;;1.00;1.00;;;;;;;;4961942;28;61997;-76
2022/10/05 12:59:23;;;;;;;;;1.00;1.00;;;;;;;;4942193;28;61937;-75
2022/10/05 13:02:08;;;;;;;;;1.67;1.67;;;;;;;;4961214;28;62096;-76
2022/10/05 13:04:37;;;;;;;;;5.00;1.67;;;;;;;;4960790;28;62245;-75
2022/10/05 13:07:18;;;;;;;;;2.00;2.00;;;;;;;;4945138;28;61943;-76
2022/10/05 13:09:43;;;;;;;;;2.00;2.00;;;;;;;;4961924;28;61894;-75
2022/10/05 13:12:16;;;;;;;;;2.33;1.00;;;;;;;;4969021;28;61914;-75
2022/10/05 13:14:53;;;;;;;;;2.33;2.33;;;;;;;;5044992;28;61834;-76
2022/10/05 13:17:21;;;;;;;;;2.00;1.00;;;;;;;;5062191;28;61698;-76
2022/10/05 13:19:53;;;;;;;;;2.00;2.00;;;;;;;;5059921;28;61825;-76
2022/10/05 13:22:36;;;;;;;;;1.00;0.67;;;;;;;;5060834;28;61936;-75
2022/10/05 13:25:07;;;;;;;;;2.00;2.00;;;;;;;;5061608;28;64606;-77
2022/10/05 13:27:41;;;;;;;;;1.33;1.33;;;;;;;;5043949;28;61802;-76
2022/10/05 13:30:13;;;;;;;;;1.00;1.00;;;;;;;;5042139;28;62031;-76
2022/10/05 13:32:47;;;;;;;;;4.67;2.67;;;;;;;;5062022;28;61815;-76
2022/10/05 13:35:31;;;;;;;;;3.00;2.00;;;;;;;;5042801;28;63639;-76
2022/10/05 13:38:15;;;;;;;;;4.00;2.00;;;;;;;;5062275;28;61753;-76
2022/10/05 13:40:49;;;;;;;;;2.00;2.00;;;;;;;;5063315;28;62114;-76
2022/10/05 13:43:23;;;;;;;;;1.00;1.00;;;;;;;;5044783;28;61766;-77
2022/10/05 13:45:48;;;;;;;;;3.00;0.67;;;;;;;;5061916;28;62069;-77
2022/10/05 13:48:17;;;;;;;;;1.67;1.67;;;;;;;;5062423;28;61841;-75
2022/10/05 13:51:02;;;;;;;;;2.00;2.00;;;;;;;;5063278;28;61951;-77
2022/10/05 13:53:27;;;;;;;;;3.33;3.33;;;;;;;;5022517;28;62056;-77
2022/10/05 13:55:53;;;;;;;;;2.00;2.00;;;;;;;;5021843;28;61779;-76
2022/10/05 13:58:27;;;;;;;;;3.00;1.67;;;;;;;;5023328;28;61892;-77
2022/10/05 14:00:54;;;;;;;;;2.67;2.67;;;;;;;;5024293;28;61968;-75
2022/10/05 14:03:28;;;;;;;;;2.00;2.00;;;;;;;;5042645;28;61971;-76
2022/10/05 14:05:56;;;;;;;;;3.00;2.33;;;;;;;;5040549;28;62263;-76
2022/10/05 14:08:24;;;;;;;;;1.67;1.67;;;;;;;;5041858;28;62114;-75
2022/10/05 14:10:49;;;;;;;;;2.33;2.33;;;;;;;;5041100;28;62020;-75
2022/10/05 14:13:43;;;;;;;;;5.33;2.00;;;;;;;;5041601;28;61931;-75
2022/10/05 14:16:11;;;;;;;;;3.00;3.00;;;;;;;;5041855;28;61845;-75
2022/10/05 14:18:37;;;;;;;;;3.00;2.00;;;;;;;;5042308;28;61806;-76
2022/10/05 14:21:02;;;;;;;;;2.67;2.67;;;;;;;;5042280;28;61758;-76
2022/10/05 14:23:28;;;;;;;;;2.00;2.00;;;;;;;;5042395;28;61880;-75
2022/10/05 14:25:53;;;;;;;;;4.00;3.00;;;;;;;;5041546;28;62032;-75
2022/10/05 14:28:19;;;;;;;;;3.33;2.33;;;;;;;;5042397;28;61810;-75
2022/10/05 14:30:54;;;;;;;;;2.67;2.67;;;;;;;;5042091;28;61831;-75
2022/10/05 14:33:19;;;;;;;;;3.33;3.33;;;;;;;;5042568;28;62073;-75
2022/10/05 14:35:49;;;;;;;;;2.00;2.00;;;;;;;;5041709;28;61877;-75
2022/10/05 14:38:19;;;;;;;;;3.00;2.33;;;;;;;;5042200;28;61698;-75
2022/10/05 14:41:00;;;;;;;;;3.67;3.00;;;;;;;;5042310;28;61770;-75
2022/10/05 14:43:26;;;;;;;;;4.33;3.67;;;;;;;;5041999;28;61914;-75
2022/10/05 14:45:59;;;;;;;;;3.67;2.33;;;;;;;;5040926;28;62805;-75
2022/10/05 14:48:28;;;;;;;;;3.67;2.33;;;;;;;;5041345;28;61822;-80
2022/10/05 14:50:58;;;;;;;;;3.67;3.67;;;;;;;;5041782;28;61664;-75
2022/10/05 14:53:25;;;;;;;;;3.00;2.00;;;;;;;;5053116;28;61879;-74
2022/10/05 14:55:54;;;;;;;;;3.33;1.67;;;;;;;;5042772;28;61742;-76
2022/10/05 14:58:22;;;;;;;;;3.00;2.33;;;;;;;;5025281;28;61843;-75
2022/10/05 15:00:55;;;;;;;;;3.67;3.00;;;;;;;;5025156;28;62496;-75
2022/10/05 15:03:39;;;;;;;;;4.33;3.00;;;;;;;;5043414;28;61864;-75
2022/10/05 15:06:12;;;;;;;;;3.33;2.67;;;;;;;;5042795;28;62050;-74
2022/10/05 15:08:53;;;;;;;;;4.67;3.00;;;;;;;;5043514;28;61777;-75
2022/10/05 15:11:24;;;;;;;;;5.00;3.33;;;;;;;;5043224;28;61743;-74
2022/10/05 15:13:50;;;;;;;;;5.00;3.33;;;;;;;;5055306;28;62012;-76
2022/10/05 15:16:32;;;;;;;;;2.50;2.50;;;;;;;;5061339;28;61831;-76
2022/10/05 15:19:01;;;;;;;;;3.00;2.00;;;;;;;;5038040;28;62046;-75
2022/10/05 15:21:33;;;;;;;;;2.67;2.67;;;;;;;;5040612;28;61938;-76
2022/10/05 15:23:58;;;;;;;;;3.00;2.00;;;;;;;;5038453;28;61754;-76
2022/10/05 15:26:29;;;;;;;;;4.00;3.00;;;;;;;;5040143;28;61944;-75
2022/10/05 15:29:00;;;;;;;;;5.33;5.33;;;;;;;;5039975;28;61700;-77